Time;durP1;ratioP1;P1;durP2;ratioP2;P2;SDS_P1;SDS_P2;PMS_P1;PMS_P2;Temp;Humidity;BMP_temperature;BMP_pressure;BME280_temperature;BME280_humidity;BME280_pressure;Samples;Min_cycle;Max_cycle;Signal;HPM_P1;HPM_P2
2021/04/23 00:00:29;;;;;;;0.33;0.33;;;7.60;99.90;;;;;;5096185;28;20228;-81
2021/04/23 00:02:56;;;;;;;0.50;0.50;;;7.60;99.90;;;;;;5100933;28;20202;-80
2021/04/23 00:05:22;;;;;;;0.30;0.30;;;7.60;99.90;;;;;;5106736;28;20271;-79
2021/04/23 00:07:48;;;;;;;0.13;0.13;;;7.70;99.90;;;;;;5101832;28;20210;-80
2021/04/23 00:10:18;;;;;;;0.03;0.03;;;7.60;99.90;;;;;;5094341;28;20208;-81
2021/04/23 00:12:44;;;;;;;0.40;0.40;;;7.50;99.90;;;;;;5117100;28;20186;-81
2021/04/23 00:15:13;;;;;;;0.10;0.10;;;7.40;99.90;;;;;;5108818;28;20241;-81
2021/04/23 00:17:39;;;;;;;0.10;0.10;;;7.40;99.90;;;;;;5099074;28;20186;-81
2021/04/23 00:20:12;;;;;;;0.13;0.13;;;7.40;99.90;;;;;;5097618;28;20320;-79
2021/04/23 00:22:37;;;;;;;0.10;0.10;;;7.40;99.90;;;;;;5112223;28;20193;-81
2021/04/23 00:25:04;;;;;;;0.47;0.17;;;7.40;99.90;;;;;;5108545;28;20703;-80
2021/04/23 00:27:30;;;;;;;0.20;0.20;;;7.30;99.90;;;;;;5102767;28;20206;-81
2021/04/23 00:29:56;;;;;;;0.43;0.43;;;7.30;99.90;;;;;;5108938;28;20569;-81
2021/04/23 00:32:22;;;;;;;0.50;0.50;;;7.40;99.90;;;;;;5103785;28;20187;-80
2021/04/23 00:34:48;;;;;;;0.10;0.10;;;7.40;99.90;;;;;;5103096;28;20187;-80
2021/04/23 00:37:13;;;;;;;0.37;0.37;;;7.40;99.90;;;;;;5109540;28;20293;-80
2021/04/23 00:39:39;;;;;;;0.10;0.10;;;7.40;99.90;;;;;;5108859;28;20257;-81
2021/04/23 00:42:06;;;;;;;0.30;0.30;;;7.40;99.90;;;;;;5093085;28;20185;-81
2021/04/23 00:44:31;;;;;;;0.43;0.30;;;7.30;99.90;;;;;;5094424;28;20220;-81
2021/04/23 00:46:57;;;;;;;0.10;0.10;;;7.20;99.90;;;;;;5103305;28;20260;-80
2021/04/23 00:49:23;;;;;;;0.10;0.10;;;7.10;99.90;;;;;;5113466;28;20290;-81
2021/04/23 00:51:58;;;;;;;3.23;0.57;;;7.10;99.90;;;;;;5109455;28;20180;-81
2021/04/23 00:54:24;;;;;;;0.30;0.30;;;7.00;99.90;;;;;;5119415;27;20178;-79
2021/04/23 00:56:50;;;;;;;0.10;0.10;;;7.00;99.90;;;;;;5102802;28;20279;-80
2021/04/23 00:59:16;;;;;;;0.10;0.10;;;7.10;99.90;;;;;;5098656;28;20211;-81
2021/04/23 01:01:57;;;;;;;0.30;0.30;;;6.90;99.90;;;;;;5110844;27;20537;-80
2021/04/23 01:04:28;;;;;;;0.17;0.17;;;6.90;99.90;;;;;;5106993;28;20687;-81
2021/04/23 01:06:55;;;;;;;0.10;0.10;;;6.90;99.90;;;;;;5103381;28;20272;-80
2021/04/23 01:09:24;;;;;;;0.27;0.27;;;6.80;99.90;;;;;;5097448;28;20195;-80
2021/04/23 01:11:51;;;;;;;0.20;0.20;;;6.60;99.90;;;;;;5102639;27;20193;-81
2021/04/23 01:14:17;;;;;;;0.00;0.00;;;6.50;99.90;;;;;;5101575;28;20188;-80
2021/04/23 01:16:43;;;;;;;0.40;0.37;;;6.40;99.90;;;;;;5104982;28;20215;-80
2021/04/23 01:19:12;;;;;;;0.10;0.10;;;6.40;99.90;;;;;;5096893;28;20176;-81
2021/04/23 01:21:39;;;;;;;0.10;0.10;;;6.40;99.90;;;;;;5108815;28;20641;-81
2021/04/23 01:24:08;;;;;;;1.40;0.63;;;6.50;99.90;;;;;;5115198;28;20239;-81
2021/04/23 01:26:37;;;;;;;0.10;0.10;;;6.50;99.90;;;;;;5102022;28;20571;-80
2021/04/23 01:29:06;;;;;;;0.10;0.10;;;6.60;99.90;;;;;;5102226;28;20229;-79
2021/04/23 01:31:34;;;;;;;0.10;0.10;;;6.50;99.90;;;;;;5102331;28;20299;-81
2021/04/23 01:34:16;;;;;;;0.33;0.33;;;6.50;99.90;;;;;;5109269;28;20191;-80
2021/04/23 01:36:43;;;;;;;0.33;0.20;;;6.50;99.90;;;;;;5113118;28;20191;-80
2021/04/23 01:39:13;;;;;;;3.30;0.50;;;6.60;99.90;;;;;;5102116;28;20187;-80
2021/04/23 01:41:39;;;;;;;0.10;0.10;;;6.40;99.90;;;;;;5100331;28;20223;-80
2021/04/23 01:44:06;;;;;;;0.17;0.17;;;6.40;99.90;;;;;;5095180;28;20226;-81
2021/04/23 01:46:33;;;;;;;0.20;0.20;;;6.30;99.90;;;;;;5094881;28;20226;-79
2021/04/23 01:49:05;;;;;;;4.90;0.20;;;6.40;99.90;;;;;;5096391;28;20595;-81
2021/04/23 01:51:31;;;;;;;0.30;0.30;;;6.30;99.90;;;;;;5104978;28;20199;-81
2021/04/23 01:53:57;;;;;;;0.10;0.10;;;6.30;99.90;;;;;;5098188;28;20220;-81
2021/04/23 01:56:23;;;;;;;1.03;0.77;;;6.30;99.90;;;;;;5098377;28;20210;-80
2021/04/23 01:58:49;;;;;;;0.10;0.10;;;6.20;99.90;;;;;;5112616;28;20195;-80
2021/04/23 02:01:15;;;;;;;0.10;0.10;;;6.20;99.90;;;;;;5114880;27;20231;-81
2021/04/23 02:03:41;;;;;;;0.10;0.10;;;6.10;99.90;;;;;;5116447;27;20703;-80
2021/04/23 02:06:09;;;;;;;3.00;0.80;;;6.10;99.90;;;;;;5106682;28;20187;-80
2021/04/23 02:08:35;;;;;;;8.87;0.60;;;6.00;99.90;;;;;;5113040;28;20184;-80
2021/04/23 02:11:07;;;;;;;0.17;0.17;;;6.00;99.90;;;;;;5113115;27;20215;-80
2021/04/23 02:13:35;;;;;;;0.30;0.30;;;6.00;99.90;;;;;;5097947;28;20191;-81
2021/04/23 02:16:01;;;;;;;0.10;0.10;;;5.90;99.90;;;;;;5099048;28;20190;-81
2021/04/23 02:18:27;;;;;;;0.20;0.20;;;5.80;99.90;;;;;;5099620;28;20187;-80
2021/04/23 02:20:53;;;;;;;0.10;0.10;;;5.90;99.90;;;;;;5101219;28;20216;-80
2021/04/23 02:23:20;;;;;;;0.57;0.57;;;5.70;99.90;;;;;;5095151;28;20267;-81
2021/04/23 02:25:48;;;;;;;0.57;0.20;;;5.40;99.90;;;;;;5097665;28;20198;-80
2021/04/23 02:28:14;;;;;;;0.20;0.20;;;5.40;99.90;;;;;;5095952;28;20183;-81
2021/04/23 02:30:44;;;;;;;0.10;0.10;;;5.30;99.90;;;;;;5097181;28;20281;-81
2021/04/23 02:33:12;;;;;;;0.20;0.20;;;5.30;99.90;;;;;;5093255;28;20328;-80
2021/04/23 02:35:39;;;;;;;0.20;0.20;;;5.10;99.90;;;;;;5098925;28;20198;-81
2021/04/23 02:38:05;;;;;;;0.20;0.20;;;5.10;99.90;;;;;;5095827;28;20275;-81
2021/04/23 02:40:32;;;;;;;0.10;0.10;;;5.10;99.90;;;;;;5095144;28;20211;-81
2021/04/23 02:43:01;;;;;;;0.30;0.30;;;5.10;99.90;;;;;;5099143;28;20546;-80
2021/04/23 02:45:31;;;;;;;0.20;0.20;;;5.10;99.90;;;;;;5104327;28;20244;-79
2021/04/23 02:47:57;;;;;;;0.27;0.27;;;5.20;99.90;;;;;;5095156;28;20185;-81
2021/04/23 02:50:26;;;;;;;0.10;0.10;;;5.10;99.90;;;;;;5099630;28;20269;-81
2021/04/23 02:52:51;;;;;;;0.67;0.20;;;5.20;99.90;;;;;;5092072;28;20183;-81
2021/04/23 02:55:18;;;;;;;0.60;0.33;;;5.10;99.90;;;;;;5094866;28;20251;-80
2021/04/23 02:57:59;;;;;;;0.17;0.17;;;5.20;99.90;;;;;;5099267;28;20220;-81
2021/04/23 03:00:28;;;;;;;0.40;0.40;;;5.20;99.90;;;;;;5095451;28;20222;-80
2021/04/23 03:02:54;;;;;;;0.13;0.10;;;5.20;99.90;;;;;;5107135;27;20181;-81
2021/04/23 03:05:21;;;;;;;0.10;0.10;;;5.20;99.90;;;;;;5104812;28;20293;-81
2021/04/23 03:07:50;;;;;;;0.30;0.30;;;5.30;99.90;;;;;;5095162;28;20624;-81
2021/04/23 03:10:16;;;;;;;0.10;0.10;;;5.40;99.90;;;;;;5102632;28;20263;-81
2021/04/23 03:12:42;;;;;;;0.20;0.20;;;5.30;99.90;;;;;;5111001;28;20185;-80
2021/04/23 03:15:09;;;;;;;1.03;1.03;;;5.30;99.90;;;;;;5094003;28;20208;-82
2021/04/23 03:17:35;;;;;;;0.20;0.20;;;5.30;99.90;;;;;;5092505;28;20642;-80
2021/04/23 03:20:02;;;;;;;0.30;0.20;;;5.30;99.90;;;;;;5098971;28;20682;-80
2021/04/23 03:22:27;;;;;;;0.10;0.10;;;5.20;99.90;;;;;;5092715;28;20226;-80
2021/04/23 03:24:53;;;;;;;0.10;0.10;;;5.30;99.90;;;;;;5100074;28;20211;-85
2021/04/23 03:27:19;;;;;;;0.10;0.10;;;5.30;99.90;;;;;;5106202;28;20643;-85
2021/04/23 03:29:45;;;;;;;0.10;0.10;;;5.30;99.90;;;;;;5109820;28;20204;-87
2021/04/23 03:32:10;;;;;;;0.67;0.30;;;5.30;99.90;;;;;;5097037;28;20186;-82
2021/04/23 03:34:36;;;;;;;0.10;0.10;;;5.30;99.90;;;;;;5096693;28;20598;-82
2021/04/23 03:37:02;;;;;;;0.23;0.20;;;5.40;99.90;;;;;;5107050;28;20267;-82
2021/04/23 03:39:27;;;;;;;0.30;0.30;;;5.40;99.90;;;;;;5108587;28;20188;-82
2021/04/23 03:41:53;;;;;;;0.20;0.20;;;5.40;99.90;;;;;;5108942;28;20205;-82
2021/04/23 03:44:18;;;;;;;0.10;0.10;;;5.50;99.90;;;;;;5100880;27;20211;-82
2021/04/23 03:46:44;;;;;;;0.27;0.27;;;5.40;99.90;;;;;;5095509;28;20664;-81
2021/04/23 03:49:10;;;;;;;0.30;0.30;;;5.40;99.90;;;;;;5112849;28;20179;-82
2021/04/23 03:51:35;;;;;;;0.77;0.43;;;5.40;99.90;;;;;;5111647;28;20228;-81
2021/04/23 03:54:01;;;;;;;0.20;0.20;;;5.40;99.90;;;;;;5094648;28;20721;-82
2021/04/23 03:56:27;;;;;;;0.00;0.00;;;5.40;99.90;;;;;;5102123;28;20690;-82
2021/04/23 03:58:53;;;;;;;0.10;0.10;;;5.40;99.90;;;;;;5106212;28;20647;-84
2021/04/23 04:01:22;;;;;;;0.10;0.10;;;5.40;99.90;;;;;;5109620;28;20210;-83
2021/04/23 04:03:49;;;;;;;0.10;0.10;;;5.40;99.90;;;;;;5106807;28;20222;-83
2021/04/23 04:06:15;;;;;;;0.10;0.10;;;5.40;99.90;;;;;;5099688;28;20180;-83
2021/04/23 04:08:41;;;;;;;0.60;0.60;;;5.40;99.90;;;;;;5110244;28;20689;-83
2021/04/23 04:11:07;;;;;;;0.47;0.37;;;5.30;99.90;;;;;;5115866;28;20205;-83
2021/04/23 04:13:34;;;;;;;0.87;0.30;;;5.30;99.90;;;;;;5101379;28;20187;-83
2021/04/23 04:16:01;;;;;;;0.10;0.10;;;5.20;99.90;;;;;;5105676;28;20268;-82
2021/04/23 04:18:26;;;;;;;0.30;0.30;;;5.30;99.90;;;;;;5099241;28;20707;-85
2021/04/23 04:20:53;;;;;;;0.20;0.20;;;5.30;99.90;;;;;;5105928;28;20242;-82
2021/04/23 04:23:20;;;;;;;0.10;0.10;;;5.20;99.90;;;;;;5105714;28;20192;-84
2021/04/23 04:25:50;;;;;;;0.20;0.20;;;5.30;99.90;;;;;;5105350;28;20188;-83
2021/04/23 04:28:16;;;;;;;0.30;0.30;;;5.30;99.90;;;;;;5099838;28;20709;-83
2021/04/23 04:30:42;;;;;;;0.20;0.20;;;5.40;99.90;;;;;;5107324;28;20203;-84
2021/04/23 04:33:30;;;;;;;0.10;0.10;;;5.50;99.90;;;;;;5109830;28;20191;-83
2021/04/23 04:35:56;;;;;;;0.10;0.10;;;5.50;99.90;;;;;;5109440;28;20183;-83
2021/04/23 04:38:22;;;;;;;0.10;0.10;;;5.60;99.90;;;;;;5103817;28;20556;-83
2021/04/23 04:40:50;;;;;;;0.10;0.10;;;5.60;99.90;;;;;;5099404;28;20202;-83
2021/04/23 04:43:17;;;;;;;0.10;0.10;;;5.70;99.90;;;;;;5109533;28;20210;-83
2021/04/23 04:45:43;;;;;;;0.10;0.10;;;5.70;99.90;;;;;;5100998;28;20710;-85
2021/04/23 04:48:10;;;;;;;0.00;0.00;;;5.70;99.90;;;;;;5109018;28;20559;-86
2021/04/23 04:50:40;;;;;;;0.20;0.20;;;5.60;99.90;;;;;;5102673;28;20352;-86
2021/04/23 04:53:07;;;;;;;0.17;0.17;;;5.70;99.90;;;;;;5101270;28;20283;-85
2021/04/23 04:55:36;;;;;;;0.20;0.20;;;5.90;99.90;;;;;;5102481;28;20187;-83
2021/04/23 04:58:03;;;;;;;0.10;0.10;;;6.00;99.90;;;;;;5109711;28;20192;-83
2021/04/23 05:00:29;;;;;;;0.13;0.13;;;6.10;99.90;;;;;;5123586;27;20214;-83
2021/04/23 05:02:55;;;;;;;0.80;0.10;;;6.20;99.90;;;;;;5106348;28;20187;-83
2021/04/23 05:05:21;;;;;;;0.20;0.20;;;6.20;99.90;;;;;;5105256;28;20926;-83
2021/04/23 05:07:48;;;;;;;0.60;0.37;;;6.30;99.90;;;;;;5096784;28;20185;-83
2021/04/23 05:10:14;;;;;;;0.67;0.20;;;6.20;99.90;;;;;;5106993;27;20578;-85
2021/04/23 05:12:40;;;;;;;0.50;0.50;;;6.20;99.90;;;;;;5108255;27;20282;-86
2021/04/23 05:15:08;;;;;;;0.33;0.33;;;5.80;99.90;;;;;;5105449;28;20278;-86
2021/04/23 05:17:34;;;;;;;0.20;0.20;;;5.70;99.90;;;;;;5102684;28;20664;-82
2021/04/23 05:20:00;;;;;;;0.17;0.17;;;5.80;99.90;;;;;;5112096;28;20606;-83
2021/04/23 05:22:26;;;;;;;0.10;0.10;;;5.90;99.90;;;;;;5104113;28;20191;-83
2021/04/23 05:24:51;;;;;;;0.30;0.30;;;5.90;99.90;;;;;;5107572;28;20250;-83
2021/04/23 05:27:17;;;;;;;0.20;0.20;;;6.20;99.90;;;;;;5110584;28;20180;-83
2021/04/23 05:29:42;;;;;;;0.20;0.20;;;6.40;99.90;;;;;;5100699;28;20227;-84
2021/04/23 05:32:08;;;;;;;0.20;0.20;;;6.40;99.90;;;;;;5113187;28;20223;-83
2021/04/23 05:34:34;;;;;;;0.30;0.30;;;6.40;99.90;;;;;;5102748;28;20184;-83
2021/04/23 05:36:59;;;;;;;0.10;0.10;;;6.40;99.90;;;;;;5101757;28;20324;-83
2021/04/23 05:39:25;;;;;;;0.73;0.20;;;6.40;99.90;;;;;;5112517;28;20209;-84
2021/04/23 05:41:51;;;;;;;0.30;0.30;;;6.50;99.90;;;;;;5102473;28;20216;-84
2021/04/23 05:44:17;;;;;;;0.20;0.10;;;6.70;99.90;;;;;;5108947;28;20204;-83
2021/04/23 05:46:43;;;;;;;0.50;0.30;;;6.70;99.90;;;;;;5112574;28;20768;-83
2021/04/23 05:49:09;;;;;;;0.10;0.10;;;7.10;99.90;;;;;;5099419;28;20215;-83
2021/04/23 05:51:34;;;;;;;6.77;0.17;;;7.30;99.90;;;;;;5104244;28;20290;-82
2021/04/23 05:54:00;;;;;;;0.20;0.20;;;7.40;99.90;;;;;;5100101;28;20191;-83
2021/04/23 05:56:26;;;;;;;0.10;0.10;;;7.60;99.90;;;;;;5112861;28;20675;-83
2021/04/23 05:58:53;;;;;;;0.10;0.10;;;7.80;99.90;;;;;;5097572;28;20184;-83
2021/04/23 06:01:19;;;;;;;0.20;0.20;;;8.10;99.90;;;;;;5106880;27;20216;-84
2021/04/23 06:03:44;;;;;;;2.10;0.57;;;8.20;99.90;;;;;;5108281;27;20226;-82
2021/04/23 06:06:10;;;;;;;0.10;0.10;;;8.50;99.90;;;;;;5113949;27;20181;-83
2021/04/23 06:08:36;;;;;;;0.40;0.40;;;8.50;99.90;;;;;;5111530;28;20185;-84
2021/04/23 06:11:02;;;;;;;0.27;0.27;;;8.10;99.90;;;;;;5115086;27;20624;-83
2021/04/23 06:13:28;;;;;;;0.20;0.20;;;8.20;99.90;;;;;;5095930;28;20185;-83
2021/04/23 06:15:53;;;;;;;5.43;0.40;;;8.20;99.90;;;;;;5103551;28;20277;-82
2021/04/23 06:18:20;;;;;;;0.47;0.40;;;8.30;99.90;;;;;;5107038;28;20276;-84
2021/04/23 06:20:46;;;;;;;0.17;0.17;;;8.40;99.90;;;;;;5104706;28;20255;-83
2021/04/23 06:23:12;;;;;;;0.63;0.10;;;8.80;99.90;;;;;;5097212;28;20186;-83
2021/04/23 06:25:38;;;;;;;0.20;0.20;;;8.70;99.90;;;;;;5104870;28;20295;-84
2021/04/23 06:28:05;;;;;;;0.10;0.10;;;8.50;99.90;;;;;;5101355;28;20266;-85
2021/04/23 06:30:33;;;;;;;0.10;0.10;;;8.80;99.90;;;;;;5103620;28;20206;-84
2021/04/23 06:33:08;;;;;;;2.07;1.13;;;8.90;99.90;;;;;;5098143;28;20250;-83
2021/04/23 06:35:34;;;;;;;0.10;0.10;;;9.10;99.90;;;;;;5095951;28;20285;-83
2021/04/23 06:37:59;;;;;;;0.33;0.33;;;9.00;99.90;;;;;;5105941;28;20215;-81
2021/04/23 06:40:25;;;;;;;0.20;0.20;;;9.10;99.90;;;;;;5097240;28;20242;-79
2021/04/23 06:42:51;;;;;;;0.20;0.20;;;9.20;99.90;;;;;;5095495;28;20191;-81
2021/04/23 06:45:20;;;;;;;1.03;0.40;;;9.10;99.90;;;;;;5097232;28;20585;-81
2021/04/23 06:47:46;;;;;;;0.50;0.40;;;9.30;99.90;;;;;;5102279;28;20185;-81
2021/04/23 06:50:16;;;;;;;0.10;0.10;;;9.30;99.90;;;;;;5098910;28;20218;-81
2021/04/23 06:52:42;;;;;;;0.70;0.70;;;9.50;99.90;;;;;;5102422;28;20175;-81
2021/04/23 06:55:11;;;;;;;0.50;0.50;;;9.90;99.90;;;;;;5102436;28;20249;-79
2021/04/23 06:57:37;;;;;;;0.40;0.40;;;10.00;99.90;;;;;;5110908;28;20593;-80
2021/04/23 07:00:07;;;;;;;0.63;0.63;;;10.40;99.90;;;;;;5098160;28;20217;-81
2021/04/23 07:02:32;;;;;;;0.40;0.40;;;10.50;99.90;;;;;;5118059;27;20562;-81
2021/04/23 07:04:58;;;;;;;4.93;1.37;;;10.60;99.90;;;;;;5104688;28;20352;-80
2021/04/23 07:07:23;;;;;;;0.67;0.67;;;10.50;99.90;;;;;;5102136;28;20191;-80
2021/04/23 07:09:49;;;;;;;0.57;0.57;;;10.30;99.90;;;;;;5103844;28;20207;-80
2021/04/23 07:12:15;;;;;;;1.20;0.53;;;10.70;99.90;;;;;;5117485;27;20215;-80
2021/04/23 07:14:40;;;;;;;0.67;0.67;;;11.10;99.90;;;;;;5097155;28;20191;-81
2021/04/23 07:17:07;;;;;;;0.20;0.20;;;11.10;99.90;;;;;;5096266;28;20578;-80
2021/04/23 07:19:32;;;;;;;0.40;0.40;;;10.60;99.90;;;;;;5103240;28;20199;-81
2021/04/23 07:21:58;;;;;;;1.33;0.87;;;11.10;99.90;;;;;;5115034;28;20199;-80
2021/04/23 07:24:24;;;;;;;0.43;0.37;;;11.50;99.90;;;;;;5098404;28;20239;-81
2021/04/23 07:26:50;;;;;;;2.97;2.57;;;11.20;99.90;;;;;;5095027;28;20694;-81
2021/04/23 07:29:15;;;;;;;0.43;0.30;;;11.10;99.90;;;;;;5095572;28;20603;-79
2021/04/23 07:31:41;;;;;;;1.03;0.37;;;10.80;99.90;;;;;;5093253;28;20555;-80
2021/04/23 07:34:06;;;;;;;0.57;0.30;;;10.80;99.90;;;;;;5101315;28;20594;-80
2021/04/23 07:36:32;;;;;;;0.43;0.43;;;10.70;99.90;;;;;;5105101;28;20727;-80
2021/04/23 07:38:57;;;;;;;0.40;0.40;;;11.10;99.90;;;;;;5103735;28;20678;-81
2021/04/23 07:41:23;;;;;;;0.20;0.20;;;11.10;99.90;;;;;;5095175;28;20204;-80
2021/04/23 07:43:49;;;;;;;0.10;0.10;;;11.40;99.90;;;;;;5098315;28;20307;-80
2021/04/23 07:46:15;;;;;;;5.33;0.40;;;11.80;99.90;;;;;;5122485;27;20649;-81
2021/04/23 07:48:41;;;;;;;0.20;0.20;;;11.70;99.90;;;;;;5103136;27;20217;-80
2021/04/23 07:51:06;;;;;;;0.50;0.50;;;12.00;99.90;;;;;;5099762;28;20671;-81
2021/04/23 07:53:32;;;;;;;1.07;0.97;;;12.30;99.90;;;;;;5098856;28;20210;-81
2021/04/23 07:55:57;;;;;;;0.33;0.33;;;11.40;99.90;;;;;;5098076;28;20282;-81
2021/04/23 07:58:23;;;;;;;0.43;0.43;;;11.20;99.90;;;;;;5097942;28;20255;-81
2021/04/23 08:00:49;;;;;;;0.20;0.20;;;11.70;99.90;;;;;;5099386;28;20203;-81
2021/04/23 08:03:15;;;;;;;0.30;0.30;;;12.10;99.90;;;;;;5103610;27;20180;-81
2021/04/23 08:05:41;;;;;;;0.37;0.37;;;11.70;99.90;;;;;;5103957;28;20257;-81
2021/04/23 08:08:07;;;;;;;0.77;0.77;;;11.90;99.90;;;;;;5097523;28;20652;-80
2021/04/23 08:10:33;;;;;;;0.20;0.20;;;11.50;99.90;;;;;;5100294;28;20210;-80
2021/04/23 08:12:59;;;;;;;0.20;0.20;;;11.80;99.90;;;;;;5108146;28;20208;-79
2021/04/23 08:15:26;;;;;;;0.53;0.50;;;12.10;99.90;;;;;;5111859;28;20180;-80
2021/04/23 08:17:54;;;;;;;1.43;1.33;;;12.10;99.90;;;;;;5111319;28;20302;-81
2021/04/23 08:20:20;;;;;;;0.53;0.53;;;11.30;99.90;;;;;;5099147;28;20214;-81
2021/04/23 08:22:46;;;;;;;0.40;0.40;;;11.80;99.90;;;;;;5107506;28;20228;-81
2021/04/23 08:25:13;;;;;;;0.27;0.27;;;11.50;99.90;;;;;;5097138;28;20616;-81
2021/04/23 08:27:39;;;;;;;0.30;0.30;;;12.10;99.90;;;;;;5102158;28;20704;-80
2021/04/23 08:30:08;;;;;;;0.20;0.20;;;12.20;99.90;;;;;;5098719;28;20246;-79
2021/04/23 08:32:34;;;;;;;0.37;0.37;;;12.50;99.90;;;;;;5101014;28;20636;-80
2021/04/23 08:35:00;;;;;;;0.53;0.53;;;12.20;99.90;;;;;;5099282;28;20219;-83
2021/04/23 08:37:26;;;;;;;0.30;0.30;;;12.80;99.90;;;;;;5093372;28;20183;-79
2021/04/23 08:39:51;;;;;;;0.30;0.30;;;13.20;99.90;;;;;;5094823;28;20199;-79
2021/04/23 08:42:20;;;;;;;0.37;0.37;;;13.20;99.90;;;;;;5109038;28;20560;-79
2021/04/23 08:44:46;;;;;;;1.30;1.20;;;13.30;99.90;;;;;;5119097;27;20686;-80
2021/04/23 08:47:17;;;;;;;0.43;0.43;;;13.20;99.90;;;;;;5115757;27;20176;-79
2021/04/23 08:49:44;;;;;;;1.27;1.17;;;12.80;99.90;;;;;;5097872;28;20668;-80
2021/04/23 08:52:10;;;;;;;0.53;0.53;;;13.30;99.90;;;;;;5099862;28;20179;-78
2021/04/23 08:54:36;;;;;;;2.50;1.50;;;13.20;99.90;;;;;;5099846;28;20188;-81
2021/04/23 08:57:03;;;;;;;2.07;1.03;;;13.30;99.90;;;;;;5097859;28;20195;-80
2021/04/23 08:59:29;;;;;;;0.17;0.17;;;13.50;99.90;;;;;;5098610;28;20795;-80
2021/04/23 09:01:55;;;;;;;0.30;0.30;;;13.80;99.90;;;;;;5105882;28;20186;-80
2021/04/23 09:04:20;;;;;;;0.47;0.47;;;13.70;99.90;;;;;;5101187;28;20238;-80
2021/04/23 09:07:00;;;;;;;0.73;0.30;;;13.90;99.90;;;;;;5102923;28;20193;-81
2021/04/23 09:09:34;;;;;;;0.63;0.47;;;14.10;99.90;;;;;;5099603;28;20213;-80
2021/04/23 09:12:02;;;;;;;0.30;0.30;;;14.20;99.90;;;;;;5122448;27;20177;-80
2021/04/23 09:14:27;;;;;;;0.67;0.47;;;13.50;99.90;;;;;;5112094;28;20179;-80
2021/04/23 09:16:59;;;;;;;0.97;0.80;;;12.90;99.90;;;;;;5111070;28;20184;-81
2021/04/23 09:19:33;;;;;;;0.80;0.37;;;13.50;99.90;;;;;;5112973;27;20200;-81
2021/04/23 09:22:00;;;;;;;0.90;0.90;;;13.90;99.90;;;;;;5103983;28;20197;-81
2021/04/23 09:24:29;;;;;;;0.73;0.30;;;14.30;99.90;;;;;;5100157;28;20328;-81
2021/04/23 09:26:56;;;;;;;0.60;0.60;;;14.50;99.90;;;;;;5094409;28;20179;-81
2021/04/23 09:29:31;;;;;;;0.43;0.20;;;14.70;99.90;;;;;;5099010;27;20529;-81
2021/04/23 09:32:11;;;;;;;7.13;0.40;;;14.80;99.90;;;;;;5098862;27;20178;-80
2021/04/23 09:34:59;;;;;;;4.30;0.40;;;14.30;99.90;;;;;;5099797;28;20203;-80
2021/04/23 09:37:31;;;;;;;2.83;0.53;;;14.70;99.90;;;;;;5105379;28;20603;-81
2021/04/23 09:40:19;;;;;;;0.10;0.10;;;14.50;99.90;;;;;;5104202;27;20581;-80
2021/04/23 09:42:47;;;;;;;0.47;0.47;;;14.30;99.90;;;;;;5098792;28;20182;-80
2021/04/23 09:45:14;;;;;;;0.30;0.30;;;14.50;99.90;;;;;;5100911;28;20203;-80
2021/04/23 09:47:40;;;;;;;0.33;0.33;;;14.70;99.90;;;;;;5099222;28;20762;-81
2021/04/23 09:50:07;;;;;;;1.20;0.33;;;15.00;99.90;;;;;;5114338;27;20205;-81
2021/04/23 09:52:43;;;;;;;1.60;1.20;;;15.10;99.90;;;;;;5102265;27;20256;-81
2021/04/23 09:55:11;;;;;;;2.97;0.97;;;14.80;99.90;;;;;;5092687;28;20284;-81
2021/04/23 09:57:37;;;;;;;1.27;0.73;;;13.70;99.90;;;;;;5094748;28;20522;-81
2021/04/23 10:00:07;;;;;;;1.20;1.20;;;13.90;99.90;;;;;;5100712;28;20206;-81
2021/04/23 10:02:33;;;;;;;0.23;0.23;;;13.50;99.90;;;;;;5096906;27;20620;-81
2021/04/23 10:04:58;;;;;;;0.47;0.47;;;14.00;99.90;;;;;;5105849;27;20235;-80
2021/04/23 10:07:29;;;;;;;0.70;0.60;;;14.60;99.90;;;;;;5113486;27;20213;-80
2021/04/23 10:10:00;;;;;;;0.33;0.33;;;14.50;99.90;;;;;;5096082;28;20224;-80
2021/04/23 10:12:53;;;;;;;0.27;0.27;;;14.80;99.90;;;;;;5112937;27;20260;-79
2021/04/23 10:15:22;;;;;;;0.40;0.40;;;14.60;99.90;;;;;;5095820;28;20205;-80
2021/04/23 10:18:09;;;;;;;0.20;0.20;;;14.20;99.90;;;;;;5105905;28;20191;-80
2021/04/23 10:20:38;;;;;;;0.20;0.20;;;14.30;99.90;;;;;;5097211;28;20330;-79
2021/04/23 10:23:06;;;;;;;0.40;0.40;;;14.70;99.90;;;;;;5098817;28;20185;-80
2021/04/23 10:25:33;;;;;;;0.73;0.50;;;15.30;99.90;;;;;;5115409;27;20209;-80
2021/04/23 10:28:00;;;;;;;0.60;0.50;;;15.70;99.90;;;;;;5108577;27;20180;-80
2021/04/23 10:30:38;;;;;;;0.37;0.30;;;15.90;99.90;;;;;;5098120;28;20209;-81
2021/04/23 10:33:07;;;;;;;0.20;0.20;;;16.30;99.90;;;;;;5098317;28;20585;-80
2021/04/23 10:35:33;;;;;;;0.57;0.57;;;16.30;99.90;;;;;;5108091;28;20189;-79
2021/04/23 10:38:24;;;;;;;0.50;0.47;;;16.20;99.90;;;;;;5094809;28;20746;-79
2021/04/23 10:40:56;;;;;;;0.33;0.33;;;16.50;99.90;;;;;;5093068;28;20309;-80
2021/04/23 10:43:21;;;;;;;0.40;0.40;;;15.10;99.90;;;;;;5096695;28;20246;-81
2021/04/23 10:46:05;;;;;;;0.10;0.10;;;14.40;99.90;;;;;;5105690;28;20711;-79
2021/04/23 10:48:43;;;;;;;0.30;0.30;;;15.10;99.90;;;;;;5095660;28;20239;-79
2021/04/23 10:51:20;;;;;;;0.43;0.33;;;15.60;99.90;;;;;;5098869;28;20211;-80
2021/04/23 10:53:48;;;;;;;0.57;0.57;;;16.10;99.90;;;;;;5098923;28;20174;-80
2021/04/23 10:56:37;;;;;;;0.30;0.30;;;16.00;99.90;;;;;;5108489;28;20176;-80
2021/04/23 10:59:08;;;;;;;1.23;1.17;;;16.00;99.90;;;;;;5097621;28;20193;-80
2021/04/23 11:01:40;;;;;;;0.40;0.40;;;15.90;99.90;;;;;;5100581;27;20287;-82
2021/04/23 11:04:10;;;;;;;0.40;0.30;;;16.10;99.90;;;;;;5100211;28;20687;-83
2021/04/23 11:06:38;;;;;;;1.00;0.90;;;16.00;99.90;;;;;;5102409;28;20180;-83
2021/04/23 11:09:24;;;;;;;1.00;0.60;;;15.40;99.90;;;;;;5097911;28;20204;-83
2021/04/23 11:12:08;;;;;;;0.50;0.50;;;15.10;99.90;;;;;;5101969;27;20277;-82
2021/04/23 11:14:36;;;;;;;0.67;0.67;;;15.10;99.90;;;;;;5104675;27;20215;-83
2021/04/23 11:17:17;;;;;;;0.13;0.13;;;15.70;99.90;;;;;;5099942;28;20179;-83
2021/04/23 11:19:43;;;;;;;0.70;0.70;;;15.90;99.90;;;;;;5101905;28;20267;-83
2021/04/23 11:22:27;;;;;;;0.70;0.63;;;15.50;99.90;;;;;;5101977;28;20682;-83
2021/04/23 11:25:04;;;;;;;0.10;0.10;;;16.10;99.90;;;;;;5097316;28;20203;-83
2021/04/23 11:27:30;;;;;;;0.20;0.20;;;16.30;99.90;;;;;;5103805;28;20229;-83
2021/04/23 11:29:57;;;;;;;0.73;0.50;;;16.60;99.90;;;;;;5100444;28;20690;-83
2021/04/23 11:32:24;;;;;;;0.43;0.17;;;16.60;99.90;;;;;;5106784;27;20256;-82
2021/04/23 11:35:15;;;;;;;1.80;0.60;;;16.90;99.90;;;;;;5100806;28;20204;-83
2021/04/23 11:37:40;;;;;;;0.20;0.20;;;16.80;99.90;;;;;;5097910;28;20215;-82
2021/04/23 11:40:12;;;;;;;0.43;0.43;;;16.00;99.90;;;;;;5092770;28;20244;-83
2021/04/23 11:42:53;;;;;;;0.43;0.30;;;15.70;99.90;;;;;;5090400;28;20184;-83
2021/04/23 11:45:26;;;;;;;0.30;0.30;;;16.50;99.90;;;;;;5119797;27;20203;-82
2021/04/23 11:48:06;;;;;;;0.50;0.50;;;16.90;99.90;;;;;;5094593;28;20181;-82
2021/04/23 11:50:34;;;;;;;0.30;0.30;;;16.50;99.90;;;;;;5092935;28;20200;-81
2021/04/23 11:53:04;;;;;;;0.43;0.33;;;16.20;99.90;;;;;;5091626;28;20326;-81
2021/04/23 11:55:41;;;;;;;0.20;0.20;;;15.40;99.90;;;;;;5100642;28;20199;-81
2021/04/23 11:58:12;;;;;;;0.20;0.20;;;16.00;99.90;;;;;;5089004;28;20180;-81
2021/04/23 12:00:40;;;;;;;1.30;1.13;;;16.60;99.90;;;;;;5091756;28;20206;-80
2021/04/23 12:03:07;;;;;;;0.47;0.47;;;16.30;99.90;;;;;;5111422;27;20188;-81
2021/04/23 12:05:35;;;;;;;0.20;0.20;;;16.10;99.90;;;;;;5090312;28;20819;-81
2021/04/23 12:08:12;;;;;;;1.33;0.50;;;16.10;99.90;;;;;;5099085;28;20194;-81
2021/04/23 12:10:45;;;;;;;0.33;0.33;;;16.40;99.90;;;;;;5082110;28;20952;-81
2021/04/23 12:13:23;;;;;;;3.30;0.40;;;16.60;99.90;;;;;;5076765;28;20183;-80
2021/04/23 12:15:51;;;;;;;0.73;0.73;;;16.40;99.90;;;;;;5071381;28;20203;-81
2021/04/23 12:18:18;;;;;;;0.60;0.50;;;16.80;99.90;;;;;;5088875;28;20213;-81
2021/04/23 12:20:44;;;;;;;1.43;0.43;;;16.50;99.90;;;;;;5106984;28;20211;-81
2021/04/23 12:23:16;;;;;;;0.37;0.37;;;16.20;99.90;;;;;;5097477;28;20196;-81
2021/04/23 12:25:47;;;;;;;0.13;0.13;;;16.10;99.90;;;;;;5102771;28;20263;-81
2021/04/23 12:28:35;;;;;;;0.50;0.50;;;16.60;99.90;;;;;;5110833;28;20779;-81
2021/04/23 12:31:23;;;;;;;0.20;0.20;;;17.10;99.90;;;;;;5102965;28;20240;-81
2021/04/23 12:34:00;;;;;;;0.47;0.47;;;17.20;99.90;;;;;;5093606;28;20205;-84
2021/04/23 12:36:35;;;;;;;0.30;0.30;;;16.70;99.90;;;;;;5089351;28;20192;-81
2021/04/23 12:39:13;;;;;;;0.30;0.30;;;17.20;99.90;;;;;;5110687;28;20198;-81
2021/04/23 12:41:44;;;;;;;0.23;0.23;;;17.60;99.90;;;;;;5104937;28;20239;-79
2021/04/23 12:44:16;;;;;;;0.93;0.57;;;17.20;99.90;;;;;;5102148;28;20200;-80
2021/04/23 12:46:46;;;;;;;0.20;0.20;;;17.30;99.90;;;;;;5093601;28;20210;-81
2021/04/23 12:49:14;;;;;;;1.03;0.97;;;17.50;99.90;;;;;;5101393;28;20180;-81
2021/04/23 12:51:57;;;;;;;0.77;0.77;;;16.90;99.90;;;;;;5114750;28;20199;-81
2021/04/23 12:54:38;;;;;;;0.87;0.77;;;16.30;99.90;;;;;;5102399;27;20226;-80
2021/04/23 12:57:13;;;;;;;0.50;0.50;;;16.80;99.90;;;;;;5102472;27;20188;-81
2021/04/23 12:59:45;;;;;;;0.30;0.30;;;17.00;99.90;;;;;;5107979;27;20217;-81